ANZ361 YMML-YSSY
Flight info
| Callsign | ANZ361 |
|---|---|
| Flight time | 1h 11m |
| Altitude | 35000 |
| Route | DOSEL2/34 DOSEL Y59 RIVET |
| Aircraft | B738/M-VGDW/C |
Departure
| Time | 2026-05-04 07:49 |
|---|---|
| Airport | Melbourne Airport (YMML) |
Arrival
| Time | 2026-05-04 09:01 |
|---|---|
| Airport | Sydney Kingsford Smith International Airport (YSSY) |
| Time | Latitude | Longitude | Altitude | Speed | Heading |
|---|---|---|---|---|---|
| 2026-05-04 07:31 | -37.67348 | 144.84677 | 389 ft | 0 kts | 352° |
| 2026-05-04 07:41 | -37.67349 | 144.84677 | 389 ft | 0 kts | 352° |
| 2026-05-04 07:41 | -37.67363 | 144.84679 | 388 ft | 2 kts | 351° |
| 2026-05-04 07:41 | -37.67378 | 144.84682 | 388 ft | 2 kts | 352° |
| 2026-05-04 07:41 | -37.67391 | 144.84685 | 387 ft | 0 kts | 351° |
| 2026-05-04 07:42 | -37.67403 | 144.84688 | 387 ft | 2 kts | 329° |
| 2026-05-04 07:42 | -37.67414 | 144.84701 | 386 ft | 2 kts | 300° |
| 2026-05-04 07:42 | -37.67419 | 144.84720 | 387 ft | 2 kts | 270° |
| 2026-05-04 07:42 | -37.67418 | 144.84727 | 387 ft | 1 kts | 258° |
| 2026-05-04 07:43 | -37.67417 | 144.84732 | 387 ft | 0 kts | 261° |
| 2026-05-04 07:44 | -37.67421 | 144.84705 | 386 ft | 10 kts | 262° |
| 2026-05-04 07:44 | -37.67436 | 144.84573 | 382 ft | 16 kts | 256° |
| 2026-05-04 07:44 | -37.67473 | 144.84427 | 378 ft | 18 kts | 260° |
| 2026-05-04 07:45 | -37.67560 | 144.84337 | 374 ft | 19 kts | 173° |
| 2026-05-04 07:45 | -37.67708 | 144.84364 | 368 ft | 22 kts | 170° |
| 2026-05-04 07:45 | -37.67819 | 144.84337 | 366 ft | 11 kts | 222° |
| 2026-05-04 07:45 | -37.67856 | 144.84241 | 363 ft | 13 kts | 260° |
| 2026-05-04 07:46 | -37.67870 | 144.84137 | 361 ft | 0 kts | 261° |
| 2026-05-04 07:49 | -37.66353 | 144.83673 | 488 ft | 165 kts | 352° |
| 2026-05-04 07:49 | -37.65264 | 144.83447 | 1539 ft | 156 kts | 349° |
| 2026-05-04 07:49 | -37.64255 | 144.83275 | 2493 ft | 149 kts | 348° |
| 2026-05-04 07:50 | -37.63141 | 144.83046 | 2930 ft | 169 kts | 346° |
| 2026-05-04 07:50 | -37.61958 | 144.82829 | 3607 ft | 176 kts | 347° |
| 2026-05-04 07:50 | -37.60693 | 144.82591 | 4089 ft | 194 kts | 346° |
| 2026-05-04 07:50 | -37.59262 | 144.82292 | 4492 ft | 220 kts | 349° |
| 2026-05-04 07:51 | -37.57663 | 144.82603 | 5198 ft | 244 kts | 18° |
| 2026-05-04 07:51 | -37.56129 | 144.83688 | 5914 ft | 259 kts | 26° |
| 2026-05-04 07:51 | -37.54552 | 144.84895 | 6632 ft | 269 kts | 23° |
| 2026-05-04 07:51 | -37.52903 | 144.86003 | 7542 ft | 269 kts | 20° |
| 2026-05-04 07:52 | -37.51214 | 144.87056 | 8347 ft | 275 kts | 20° |
| 2026-05-04 07:52 | -37.49475 | 144.88121 | 9188 ft | 278 kts | 20° |
| 2026-05-04 07:52 | -37.47755 | 144.89172 | 9896 ft | 286 kts | 19° |
| 2026-05-04 07:52 | -37.45934 | 144.90271 | 10655 ft | 293 kts | 20° |
| 2026-05-04 07:53 | -37.44032 | 144.91560 | 11109 ft | 315 kts | 28° |
| 2026-05-04 07:54 | -37.34386 | 145.08012 | 15532 ft | 379 kts | 50° |
| 2026-05-04 07:55 | -37.32865 | 145.10722 | 16274 ft | 383 kts | 50° |
| 2026-05-04 07:55 | -37.31307 | 145.13478 | 17000 ft | 388 kts | 50° |
| 2026-05-04 07:55 | -37.29753 | 145.16214 | 17735 ft | 391 kts | 50° |
| 2026-05-04 07:55 | -37.28167 | 145.19006 | 18427 ft | 395 kts | 50° |
| 2026-05-04 07:56 | -37.26555 | 145.21846 | 19110 ft | 399 kts | 50° |
| 2026-05-04 07:56 | -37.24956 | 145.24660 | 19765 ft | 403 kts | 50° |
| 2026-05-04 07:56 | -37.23315 | 145.27542 | 20443 ft | 407 kts | 50° |
| 2026-05-04 07:56 | -37.21653 | 145.30458 | 21028 ft | 412 kts | 49° |
| 2026-05-04 07:57 | -37.19991 | 145.33372 | 21661 ft | 415 kts | 49° |
| 2026-05-04 07:57 | -37.18308 | 145.36322 | 22319 ft | 417 kts | 49° |
| 2026-05-04 07:57 | -37.16616 | 145.39284 | 22872 ft | 422 kts | 48° |
| 2026-05-04 07:57 | -37.14903 | 145.42279 | 23453 ft | 425 kts | 47° |
| 2026-05-04 07:58 | -37.13177 | 145.45291 | 24002 ft | 428 kts | 47° |
| 2026-05-04 07:58 | -37.11452 | 145.48299 | 24512 ft | 431 kts | 47° |
| 2026-05-04 07:58 | -37.09690 | 145.51367 | 24982 ft | 434 kts | 47° |
| 2026-05-04 07:58 | -37.07935 | 145.54421 | 25525 ft | 435 kts | 46° |
| 2026-05-04 07:59 | -37.06155 | 145.57515 | 25945 ft | 440 kts | 46° |
| 2026-05-04 07:59 | -37.04357 | 145.60634 | 26335 ft | 444 kts | 46° |
| 2026-05-04 07:59 | -37.02560 | 145.63748 | 26784 ft | 447 kts | 46° |
| 2026-05-04 07:59 | -37.00734 | 145.66916 | 27306 ft | 448 kts | 45° |
| 2026-05-04 08:00 | -36.98898 | 145.70099 | 27735 ft | 450 kts | 44° |
| 2026-05-04 08:00 | -36.97084 | 145.73239 | 28129 ft | 453 kts | 44° |
| 2026-05-04 08:00 | -36.95239 | 145.76425 | 28495 ft | 456 kts | 44° |
| 2026-05-04 08:02 | -36.82058 | 145.99153 | 31514 ft | 462 kts | 44° |
| 2026-05-04 08:02 | -36.80182 | 146.02376 | 31926 ft | 462 kts | 44° |
| 2026-05-04 08:02 | -36.78274 | 146.05649 | 32365 ft | 461 kts | 44° |
| 2026-05-04 08:03 | -36.76400 | 146.08862 | 32813 ft | 460 kts | 44° |
| 2026-05-04 08:03 | -36.74519 | 146.12080 | 33197 ft | 460 kts | 44° |
| 2026-05-04 08:03 | -36.72651 | 146.15276 | 33500 ft | 461 kts | 45° |
| 2026-05-04 08:03 | -36.70724 | 146.18561 | 33816 ft | 462 kts | 44° |
| 2026-05-04 08:04 | -36.68843 | 146.21770 | 34213 ft | 461 kts | 45° |
| 2026-05-04 08:04 | -36.66948 | 146.24999 | 34512 ft | 462 kts | 45° |
| 2026-05-04 08:04 | -36.65070 | 146.28198 | 34884 ft | 461 kts | 45° |
| 2026-05-04 08:04 | -36.63174 | 146.31424 | 34772 ft | 464 kts | 45° |
| 2026-05-04 08:05 | -36.61247 | 146.34697 | 34945 ft | 463 kts | 45° |
| 2026-05-04 08:05 | -36.59337 | 146.37939 | 34986 ft | 468 kts | 45° |
| 2026-05-04 08:05 | -36.55487 | 146.44475 | 35002 ft | 465 kts | 45° |
| 2026-05-04 08:06 | -36.51662 | 146.50955 | 34994 ft | 465 kts | 45° |
| 2026-05-04 08:06 | -36.47836 | 146.57416 | 35002 ft | 466 kts | 45° |
| 2026-05-04 08:08 | -36.32472 | 146.83246 | 35013 ft | 466 kts | 44° |
| 2026-05-04 08:11 | -36.15140 | 147.12151 | 35011 ft | 465 kts | 44° |
| 2026-05-04 08:11 | -36.09331 | 147.21788 | 35013 ft | 465 kts | 44° |
| 2026-05-04 08:12 | -36.05455 | 147.28198 | 35024 ft | 469 kts | 44° |
| 2026-05-04 08:12 | -36.01508 | 147.34701 | 35021 ft | 476 kts | 44° |
| 2026-05-04 08:13 | -35.97544 | 147.41231 | 35026 ft | 477 kts | 44° |
| 2026-05-04 08:13 | -35.93592 | 147.47745 | 35032 ft | 475 kts | 44° |
| 2026-05-04 08:14 | -35.89608 | 147.54291 | 35030 ft | 476 kts | 44° |
| 2026-05-04 08:16 | -35.73674 | 147.80335 | 35037 ft | 477 kts | 43° |
| 2026-05-04 08:16 | -35.69676 | 147.86839 | 35040 ft | 476 kts | 43° |
| 2026-05-04 08:17 | -35.65698 | 147.93295 | 35036 ft | 476 kts | 43° |
| 2026-05-04 08:17 | -35.61679 | 147.99809 | 35037 ft | 476 kts | 43° |
| 2026-05-04 08:19 | -35.45568 | 148.25798 | 35047 ft | 477 kts | 43° |
| 2026-05-04 08:20 | -35.41538 | 148.32263 | 35049 ft | 475 kts | 43° |
| 2026-05-04 08:20 | -35.37520 | 148.38702 | 35051 ft | 477 kts | 43° |
| 2026-05-04 08:21 | -35.33512 | 148.45113 | 35052 ft | 478 kts | 43° |
| 2026-05-04 08:21 | -35.29470 | 148.51564 | 35054 ft | 476 kts | 43° |
| 2026-05-04 08:22 | -35.25441 | 148.57988 | 35045 ft | 476 kts | 43° |
| 2026-05-04 08:24 | -35.09261 | 148.83649 | 35046 ft | 478 kts | 43° |
| 2026-05-04 08:24 | -35.05188 | 148.90080 | 35049 ft | 477 kts | 43° |
| 2026-05-04 08:25 | -35.01118 | 148.96497 | 35038 ft | 476 kts | 43° |
| 2026-05-04 08:25 | -34.97039 | 149.02913 | 35045 ft | 478 kts | 43° |
| 2026-05-04 08:27 | -34.80729 | 149.28461 | 35037 ft | 472 kts | 43° |
| 2026-05-04 08:28 | -34.78728 | 149.31598 | 34802 ft | 465 kts | 43° |
| 2026-05-04 08:28 | -34.76752 | 149.34695 | 34384 ft | 462 kts | 42° |
| 2026-05-04 08:28 | -34.74819 | 149.37825 | 33783 ft | 467 kts | 45° |
| 2026-05-04 08:28 | -34.73027 | 149.41138 | 33021 ft | 476 kts | 49° |
| 2026-05-04 08:29 | -34.71346 | 149.44624 | 32181 ft | 484 kts | 52° |
| 2026-05-04 08:29 | -34.69721 | 149.48233 | 31284 ft | 489 kts | 54° |
| 2026-05-04 08:29 | -34.68140 | 149.51891 | 30671 ft | 487 kts | 55° |
| 2026-05-04 08:31 | -34.57709 | 149.76257 | 26905 ft | 436 kts | 54° |
| 2026-05-04 08:33 | -34.48287 | 149.97646 | 23327 ft | 392 kts | 53° |
| 2026-05-04 08:33 | -34.47007 | 150.00531 | 22841 ft | 387 kts | 53° |
| 2026-05-04 08:35 | -34.38106 | 150.20497 | 19408 ft | 386 kts | 54° |
| 2026-05-04 08:35 | -34.36850 | 150.23328 | 18895 ft | 383 kts | 54° |
| 2026-05-04 08:35 | -34.35600 | 150.26138 | 18418 ft | 379 kts | 54° |
| 2026-05-04 08:35 | -34.34350 | 150.28944 | 17904 ft | 375 kts | 54° |
| 2026-05-04 08:37 | -34.27090 | 150.45143 | 14972 ft | 361 kts | 55° |
| 2026-05-04 08:37 | -34.25896 | 150.47815 | 14513 ft | 357 kts | 55° |
| 2026-05-04 08:37 | -34.24720 | 150.50446 | 14090 ft | 354 kts | 55° |
| 2026-05-04 08:38 | -34.23556 | 150.53046 | 13728 ft | 352 kts | 55° |
| 2026-05-04 08:38 | -34.22398 | 150.55623 | 13367 ft | 352 kts | 56° |
| 2026-05-04 08:38 | -34.21215 | 150.58258 | 12993 ft | 350 kts | 55° |
| 2026-05-04 08:40 | -34.13420 | 150.75609 | 10688 ft | 314 kts | 55° |
| 2026-05-04 08:40 | -34.12381 | 150.77916 | 10391 ft | 308 kts | 55° |
| 2026-05-04 08:40 | -34.11365 | 150.80164 | 10099 ft | 302 kts | 55° |
| 2026-05-04 08:41 | -34.10384 | 150.82333 | 10004 ft | 289 kts | 55° |
| 2026-05-04 08:41 | -34.09438 | 150.84433 | 10020 ft | 284 kts | 55° |
| 2026-05-04 08:41 | -34.08484 | 150.86554 | 10001 ft | 285 kts | 56° |
| 2026-05-04 08:41 | -34.07545 | 150.88649 | 10003 ft | 286 kts | 55° |
| 2026-05-04 08:42 | -34.06593 | 150.90770 | 10004 ft | 287 kts | 55° |
| 2026-05-04 08:42 | -34.05634 | 150.92892 | 9997 ft | 288 kts | 55° |
| 2026-05-04 08:42 | -34.04684 | 150.95000 | 9996 ft | 288 kts | 56° |
| 2026-05-04 08:42 | -34.03775 | 150.97172 | 9990 ft | 289 kts | 62° |
| 2026-05-04 08:43 | -34.03283 | 150.99579 | 9971 ft | 299 kts | 85° |
| 2026-05-04 08:43 | -34.03708 | 151.02063 | 9979 ft | 307 kts | 114° |
| 2026-05-04 08:43 | -34.04972 | 151.04169 | 9991 ft | 311 kts | 132° |
| 2026-05-04 08:43 | -34.06487 | 151.06036 | 9978 ft | 310 kts | 136° |
| 2026-05-04 08:44 | -34.08248 | 151.07573 | 9708 ft | 309 kts | 156° |
| 2026-05-04 08:44 | -34.10286 | 151.08406 | 9428 ft | 302 kts | 169° |
| 2026-05-04 08:46 | -34.24134 | 151.11830 | 6495 ft | 280 kts | 171° |
| 2026-05-04 08:46 | -34.26017 | 151.12299 | 6077 ft | 277 kts | 171° |
| 2026-05-04 08:46 | -34.27866 | 151.12772 | 5960 ft | 264 kts | 170° |
| 2026-05-04 08:46 | -34.29682 | 151.13240 | 5978 ft | 267 kts | 171° |
| 2026-05-04 08:47 | -34.31495 | 151.13709 | 5977 ft | 261 kts | 169° |
| 2026-05-04 08:47 | -34.33142 | 151.14526 | 5972 ft | 247 kts | 143° |
| 2026-05-04 08:47 | -34.34211 | 151.16098 | 5980 ft | 243 kts | 110° |
| 2026-05-04 08:47 | -34.34519 | 151.18060 | 5926 ft | 229 kts | 85° |
| 2026-05-04 08:48 | -34.34504 | 151.19961 | 5677 ft | 222 kts | 83° |
| 2026-05-04 08:48 | -34.34418 | 151.21811 | 5430 ft | 211 kts | 71° |
| 2026-05-04 08:48 | -34.33772 | 151.23288 | 5183 ft | 190 kts | 36° |
| 2026-05-04 08:48 | -34.32693 | 151.24150 | 4969 ft | 181 kts | 23° |
| 2026-05-04 08:49 | -34.31585 | 151.24884 | 4746 ft | 181 kts | 23° |
| 2026-05-04 08:50 | -34.24532 | 151.25311 | 3550 ft | 171 kts | 347° |
| 2026-05-04 08:50 | -34.23361 | 151.25026 | 3374 ft | 168 kts | 347° |
| 2026-05-04 08:51 | -34.22225 | 151.24739 | 3203 ft | 168 kts | 347° |
| 2026-05-04 08:51 | -34.21073 | 151.24445 | 3029 ft | 169 kts | 347° |
| 2026-05-04 08:51 | -34.19927 | 151.24147 | 2977 ft | 164 kts | 347° |
| 2026-05-04 08:51 | -34.18800 | 151.23854 | 2985 ft | 169 kts | 347° |
| 2026-05-04 08:52 | -34.17639 | 151.23553 | 2983 ft | 167 kts | 347° |
| 2026-05-04 08:52 | -34.16499 | 151.23257 | 2985 ft | 168 kts | 347° |
| 2026-05-04 08:52 | -34.15349 | 151.22958 | 2984 ft | 167 kts | 347° |
| 2026-05-04 08:52 | -34.14208 | 151.22661 | 2981 ft | 168 kts | 347° |
| 2026-05-04 08:53 | -34.13054 | 151.22362 | 2981 ft | 167 kts | 347° |
| 2026-05-04 08:54 | -34.05115 | 151.20306 | 1744 ft | 163 kts | 349° |
| 2026-05-04 08:55 | -34.04006 | 151.20020 | 1514 ft | 160 kts | 349° |
| 2026-05-04 08:55 | -34.02951 | 151.19743 | 1303 ft | 148 kts | 349° |
| 2026-05-04 08:55 | -34.01982 | 151.19493 | 1108 ft | 137 kts | 349° |
| 2026-05-04 08:55 | -34.01080 | 151.19263 | 1028 ft | 131 kts | 349° |
| 2026-05-04 08:57 | -33.95083 | 151.17719 | 18 ft | 60 kts | 349° |
| 2026-05-04 09:01 | -33.93783 | 151.18022 | 16 ft | 11 kts | 73° |
| 2026-05-04 09:01 | -33.93729 | 151.18066 | 18 ft | 9 kts | 353° |
| 2026-05-04 09:01 | -33.93644 | 151.18054 | 20 ft | 11 kts | 357° |
| 2026-05-04 09:01 | -33.93603 | 151.18076 | 21 ft | 3 kts | 64° |
| 2026-05-04 09:02 | -33.93596 | 151.18098 | 22 ft | 4 kts | 73° |
| 2026-05-04 09:02 | -33.93592 | 151.18120 | 22 ft | 0 kts | 77° |